EBOS/OST METAR and TAF weather

Enter ICAO airport designator
Station Type Date Time Source
EBOS METAR 2020/08/11 19:20 UTC NOAA

EBOS 111920Z 05007KT 6000 NSC 24/19 Q1014 NOSIG


Station Type Date Time Source
EBOS Decoded METAR 2020/08/11 19:20 UTC NOAA

Oostende Airport , Belgium (EBOS) 51-12N 002-52E 5M
Aug 11, 2020 - 03:20 PM EDT / 2020.08.11 1920 UTC
Wind: from the NE (050 degrees) at 8 MPH (7 KT):0
Visibility: 3 mile(s):0
Temperature: 75 F (24 C)
Dew Point: 66 F (19 C)
Relative Humidity: 73%
Pressure (altimeter): 29.94 in. Hg (1014 hPa)
ob: EBOS 111920Z 05007KT 6000 NSC 24/19 Q1014 NOSIG
cycle: 19

Station Type Date Time Source
EBOS TAF 2020/08/11 18:27 UTC NOAA

TAF EBOS 111708Z 1118/1224 08005KT 8000 NSC PROB40
TEMPO 1214/1223 VRB18G35KT 3000 TSRA

Example: see airport list